createdAt,value
2019-05-22T00:00:55.078Z,80.40
2019-05-22T00:02:06.452Z,80.34
2019-05-22T00:03:15.794Z,80.25
2019-05-22T00:04:33.463Z,80.31
2019-05-22T00:05:41.077Z,80.31
2019-05-22T00:06:47.763Z,80.28
2019-05-22T00:07:54.191Z,80.32
2019-05-22T00:08:59.423Z,80.29
2019-05-22T00:10:06.566Z,80.28
2019-05-22T00:11:13.064Z,80.25
2019-05-22T00:12:21.023Z,80.33
2019-05-22T00:13:35.013Z,80.33
2019-05-22T00:14:41.360Z,80.32
2019-05-22T00:15:48.374Z,80.33
2019-05-22T00:16:54.845Z,80.34
2019-05-22T00:18:01.873Z,80.39
2019-05-22T00:19:08.420Z,80.30
2019-05-22T00:20:14.124Z,80.38
2019-05-22T00:21:21.817Z,80.37
2019-05-22T00:22:31.422Z,80.39
2019-05-22T00:23:38.271Z,80.42
2019-05-22T00:24:46.716Z,80.42
2019-05-22T00:25:53.456Z,80.42
2019-05-22T00:27:01.148Z,80.35
2019-05-22T00:28:07.083Z,80.41
2019-05-22T00:29:12.978Z,80.41
2019-05-22T00:30:20.897Z,80.41
2019-05-22T00:31:27.160Z,80.47
2019-05-22T00:32:34.171Z,80.45
2019-05-22T00:33:39.141Z,80.52
2019-05-22T00:34:44.740Z,80.60
2019-05-22T00:35:52.344Z,80.66
2019-05-22T00:36:58.246Z,80.62
2019-05-22T00:38:05.661Z,80.54
2019-05-22T00:39:12.424Z,80.55
2019-05-22T00:40:22.366Z,80.65
2019-05-22T00:41:28.973Z,80.62
2019-05-22T00:42:36.129Z,80.57
2019-05-22T00:43:45.071Z,80.57
2019-05-22T00:44:52.599Z,80.54
2019-05-22T00:45:58.237Z,80.62
2019-05-22T00:47:04.869Z,80.56
2019-05-22T00:48:12.047Z,80.58
2019-05-22T00:49:18.069Z,80.57
2019-05-22T00:50:29.362Z,80.41
2019-05-22T00:52:02.444Z,80.47
2019-05-22T00:53:26.196Z,80.50
2019-05-22T00:54:43.335Z,80.48
2019-05-22T00:55:50.099Z,80.60
2019-05-22T00:57:11.554Z,80.58
2019-05-22T00:58:32.105Z,80.57
2019-05-22T00:59:40.426Z,80.57
2019-05-22T01:01:12.785Z,80.56
2019-05-22T01:02:21.639Z,80.55
2019-05-22T01:03:27.230Z,80.50
2019-05-22T01:04:35.618Z,80.60
2019-05-22T01:05:43.034Z,80.58
2019-05-22T01:06:49.148Z,80.52
2019-05-22T01:07:55.838Z,80.55
2019-05-22T01:09:07.734Z,80.64
2019-05-22T01:10:13.437Z,80.80
2019-05-22T01:11:21.850Z,80.88
2019-05-22T01:12:30.139Z,80.89
2019-05-22T01:13:37.790Z,80.84
2019-05-22T01:14:45.246Z,80.87
2019-05-22T01:15:52.026Z,80.81
2019-05-22T01:16:58.106Z,80.76
2019-05-22T01:18:07.269Z,80.82
2019-05-22T01:19:13.631Z,80.76
2019-05-22T01:20:24.260Z,80.79
2019-05-22T01:21:31.504Z,80.88
2019-05-22T01:22:39.347Z,80.96
2019-05-22T01:23:46.581Z,81.08
2019-05-22T01:24:54.752Z,81.06
2019-05-22T01:26:01.587Z,80.98
2019-05-22T01:27:09.267Z,81.06
2019-05-22T01:28:16.780Z,81.11
2019-05-22T01:29:23.058Z,81.08
2019-05-22T01:30:46.039Z,81.05
2019-05-22T01:31:55.604Z,81.07
2019-05-22T01:33:04.556Z,81.08
2019-05-22T01:34:19.151Z,81.13
2019-05-22T01:35:31.994Z,81.23
2019-05-22T01:36:44.471Z,81.21
2019-05-22T01:37:51.108Z,81.15
2019-05-22T01:39:03.169Z,81.14
2019-05-22T01:40:20.449Z,81.15
2019-05-22T01:41:31.187Z,81.17
2019-05-22T01:42:42.692Z,81.16
2019-05-22T01:43:50.985Z,81.16
2019-05-22T01:45:05.956Z,81.14
2019-05-22T01:46:06.150Z,81.04
2019-05-22T01:47:18.151Z,80.97
2019-05-22T01:48:29.275Z,80.94
2019-05-22T01:49:38.761Z,80.95
2019-05-22T01:50:48.623Z,81.02
2019-05-22T01:51:56.723Z,81.05
2019-05-22T01:53:03.739Z,80.97
2019-05-22T01:54:11.680Z,81.02
2019-05-22T01:55:22.177Z,81.06
2019-05-22T01:56:27.619Z,81.03
2019-05-22T01:57:33.314Z,81.01
2019-05-22T01:58:41.312Z,80.94
2019-05-22T01:59:46.911Z,80.77
2019-05-22T02:00:56.415Z,80.79
2019-05-22T02:02:01.699Z,80.73
2019-05-22T02:03:08.765Z,80.62
2019-05-22T02:04:14.909Z,80.66
2019-05-22T02:05:23.093Z,80.64
2019-05-22T02:06:28.446Z,80.59
2019-05-22T02:07:36.084Z,80.45
2019-05-22T02:08:45.293Z,80.48
2019-05-22T02:09:52.741Z,80.47
2019-05-22T02:10:59.825Z,80.43
2019-05-22T02:12:10.439Z,80.27
2019-05-22T02:13:20.331Z,80.20
2019-05-22T02:14:27.861Z,80.11
2019-05-22T02:15:34.970Z,80.02
2019-05-22T02:16:55.911Z,80.03
2019-05-22T02:17:51.230Z,80.12
2019-05-22T02:18:57.005Z,80.03
2019-05-22T02:20:04.451Z,80.01
2019-05-22T02:21:11.237Z,79.97
2019-05-22T02:22:16.979Z,79.97
2019-05-22T02:23:23.812Z,80.02
2019-05-22T02:24:29.955Z,79.93
2019-05-22T02:25:36.553Z,79.92
2019-05-22T02:26:42.042Z,79.90
2019-05-22T02:27:48.227Z,79.84
2019-05-22T02:28:55.242Z,79.88
2019-05-22T02:30:02.096Z,79.82
2019-05-22T02:31:07.547Z,79.71
2019-05-22T02:32:14.911Z,79.70
2019-05-22T02:33:22.197Z,79.67
2019-05-22T02:34:29.499Z,79.57
2019-05-22T02:35:34.545Z,79.45
2019-05-22T02:36:41.207Z,79.43
2019-05-22T02:37:48.197Z,79.47
2019-05-22T02:38:55.290Z,79.40
2019-05-22T02:40:01.128Z,79.35
2019-05-22T02:41:09.023Z,79.33
2019-05-22T02:42:19.228Z,79.23
2019-05-22T02:43:26.778Z,79.14
2019-05-22T02:44:32.525Z,79.01
2019-05-22T02:45:38.167Z,78.95
2019-05-22T02:46:43.298Z,78.82
2019-05-22T02:47:49.375Z,78.76
2019-05-22T02:48:55.771Z,78.67
2019-05-22T02:50:01.892Z,78.62
2019-05-22T02:51:07.111Z,78.55
2019-05-22T02:52:13.254Z,78.49
2019-05-22T02:53:18.556Z,78.36
2019-05-22T02:54:24.369Z,78.21
2019-05-22T02:55:29.640Z,78.24
2019-05-22T02:56:36.820Z,78.17
2019-05-22T02:57:42.441Z,78.18
2019-05-22T02:58:49.329Z,78.05
2019-05-22T02:59:54.449Z,78.01
2019-05-22T03:01:05.618Z,77.94
2019-05-22T03:02:12.833Z,77.91
2019-05-22T03:03:19.691Z,77.84
2019-05-22T03:04:27.850Z,77.79
2019-05-22T03:05:34.166Z,77.70
2019-05-22T03:06:40.141Z,77.64
2019-05-22T03:07:47.539Z,77.56
2019-05-22T03:09:10.921Z,77.47
2019-05-22T03:10:19.126Z,77.42
2019-05-22T03:11:26.367Z,77.36
2019-05-22T03:12:33.675Z,77.33
2019-05-22T03:14:01.550Z,77.32
2019-05-22T03:15:16.861Z,77.29
2019-05-22T03:16:23.506Z,77.20
2019-05-22T03:17:31.492Z,77.19
2019-05-22T03:18:38.003Z,77.16
2019-05-22T03:19:45.767Z,77.11
2019-05-22T03:20:50.952Z,77.07
2019-05-22T03:21:58.078Z,77.06
2019-05-22T03:23:40.897Z,76.98
2019-05-22T03:24:46.862Z,76.87
2019-05-22T03:25:52.511Z,76.77
2019-05-22T03:26:59.131Z,76.79
2019-05-22T03:28:05.653Z,76.77
2019-05-22T03:29:12.571Z,76.72
2019-05-22T03:30:27.655Z,76.72
2019-05-22T03:31:33.220Z,76.70
2019-05-22T03:32:43.340Z,76.67
2019-05-22T03:33:46.134Z,76.66
2019-05-22T03:34:51.262Z,76.66
2019-05-22T03:36:07.128Z,76.59
2019-05-22T03:37:12.893Z,76.52
2019-05-22T03:38:19.378Z,76.42
2019-05-22T03:39:25.045Z,76.44
2019-05-22T03:40:31.687Z,76.32
2019-05-22T03:41:37.413Z,76.30
2019-05-22T03:42:43.255Z,76.30
2019-05-22T03:43:50.677Z,76.26
2019-05-22T03:44:56.898Z,76.14
2019-05-22T03:46:10.859Z,76.11
2019-05-22T03:47:16.840Z,76.00
2019-05-22T03:48:22.325Z,75.97
2019-05-22T03:49:31.005Z,75.89
2019-05-22T03:50:37.496Z,75.78
2019-05-22T03:51:44.814Z,75.65
2019-05-22T03:52:50.965Z,75.61
2019-05-22T03:53:57.866Z,75.54
2019-05-22T03:55:03.051Z,75.57
2019-05-22T03:56:08.664Z,75.50
2019-05-22T03:57:14.375Z,75.39
2019-05-22T03:58:20.911Z,75.35
2019-05-22T03:59:26.106Z,75.27
2019-05-22T04:00:32.940Z,75.08
2019-05-22T04:01:39.270Z,74.99
2019-05-22T04:02:48.510Z,75.00
2019-05-22T04:03:55.385Z,74.96
2019-05-22T04:05:01.265Z,74.92
2019-05-22T04:06:06.720Z,74.80
2019-05-22T04:07:23.393Z,74.70
2019-05-22T04:08:31.099Z,74.62
2019-05-22T04:09:39.266Z,74.65
2019-05-22T04:10:56.690Z,74.57
2019-05-22T04:12:03.126Z,74.42
2019-05-22T04:13:08.384Z,74.25
2019-05-22T04:14:14.118Z,74.17
2019-05-22T04:15:20.486Z,74.13
2019-05-22T04:16:27.251Z,74.12
2019-05-22T04:17:34.070Z,74.02
2019-05-22T04:18:41.185Z,74.00
2019-05-22T04:19:51.117Z,73.89
2019-05-22T04:20:57.416Z,73.84
2019-05-22T04:22:02.888Z,73.72
2019-05-22T04:23:08.892Z,73.67
2019-05-22T04:24:14.869Z,73.57
2019-05-22T04:25:20.936Z,73.42
2019-05-22T04:26:26.606Z,73.23
2019-05-22T04:27:33.135Z,73.04
2019-05-22T04:28:47.437Z,73.02
2019-05-22T04:29:53.109Z,72.98
2019-05-22T04:30:59.922Z,72.87
2019-05-22T04:32:15.675Z,72.55
2019-05-22T04:33:21.564Z,72.60
2019-05-22T04:34:27.304Z,72.51
2019-05-22T04:35:33.178Z,72.31
2019-05-22T04:36:39.206Z,72.22
2019-05-22T04:37:46.716Z,72.10
2019-05-22T04:38:52.809Z,72.01
2019-05-22T04:40:55.461Z,71.84
2019-05-22T04:42:02.475Z,71.74
2019-05-22T04:43:08.376Z,71.75
2019-05-22T04:44:14.502Z,71.66
2019-05-22T04:45:20.413Z,71.54
2019-05-22T04:46:26.732Z,71.40
2019-05-22T04:47:33.595Z,71.30
2019-05-22T04:48:39.385Z,71.23
2019-05-22T04:49:45.274Z,71.08
2019-05-22T04:50:52.428Z,70.96
2019-05-22T04:51:58.087Z,70.92
2019-05-22T04:53:03.941Z,70.92
2019-05-22T04:54:09.140Z,70.89
2019-05-22T04:55:15.039Z,70.89
2019-05-22T04:56:20.439Z,70.82
2019-05-22T04:57:26.447Z,70.84
2019-05-22T04:58:31.948Z,70.77
2019-05-22T04:59:38.281Z,70.75
2019-05-22T05:00:43.891Z,70.78
2019-05-22T05:01:50.503Z,70.81
2019-05-22T05:02:55.963Z,70.82
2019-05-22T05:04:02.332Z,70.83
2019-05-22T05:05:09.042Z,70.81
2019-05-22T05:06:15.464Z,70.71
2019-05-22T05:07:21.089Z,70.71
2019-05-22T05:08:27.054Z,70.61
2019-05-22T05:09:32.685Z,70.56
2019-05-22T05:10:40.331Z,70.56
2019-05-22T05:11:45.667Z,70.57
2019-05-22T05:12:51.784Z,70.50
2019-05-22T05:13:57.396Z,70.48
2019-05-22T05:15:03.177Z,70.49
2019-05-22T05:16:08.612Z,70.44
2019-05-22T05:17:14.782Z,70.43
2019-05-22T05:18:19.954Z,70.42
2019-05-22T05:19:25.730Z,70.38
2019-05-22T05:20:31.208Z,70.28
2019-05-22T05:21:38.934Z,70.23
2019-05-22T05:22:45.615Z,70.19
2019-05-22T05:23:52.138Z,70.09
2019-05-22T05:24:57.179Z,69.96
2019-05-22T05:26:02.887Z,70.05
2019-05-22T05:27:08.273Z,70.08
2019-05-22T05:28:14.972Z,70.02
2019-05-22T05:29:28.989Z,69.97
2019-05-22T05:30:34.919Z,69.92
2019-05-22T05:31:41.222Z,69.76
2019-05-22T05:32:48.030Z,69.65
2019-05-22T05:34:32.004Z,69.61
2019-05-22T05:35:38.878Z,69.61
2019-05-22T05:36:44.727Z,69.58
2019-05-22T05:37:51.009Z,69.57
2019-05-22T05:38:57.128Z,69.50
2019-05-22T05:40:50.051Z,69.38
2019-05-22T05:41:55.883Z,69.26
2019-05-22T05:43:01.887Z,69.08
2019-05-22T05:44:08.206Z,69.06
2019-05-22T05:45:13.969Z,69.04
2019-05-22T05:46:19.960Z,69.01
2019-05-22T05:47:25.661Z,68.90
2019-05-22T05:48:33.431Z,68.86
2019-05-22T05:49:39.107Z,68.66
2019-05-22T05:51:31.175Z,68.46
2019-05-22T05:52:37.693Z,68.25
2019-05-22T05:53:59.563Z,68.11
2019-05-22T05:55:06.490Z,68.00
2019-05-22T05:56:16.442Z,67.98
2019-05-22T05:58:10.840Z,67.81
2019-05-22T05:59:18.269Z,67.80
2019-05-22T06:00:25.850Z,67.71
2019-05-22T06:01:38.335Z,67.66
2019-05-22T06:02:56.005Z,67.61
2019-05-22T06:03:50.868Z,67.50
2019-05-22T06:04:56.194Z,67.49
2019-05-22T06:06:06.207Z,67.40
2019-05-22T06:07:24.424Z,67.38
2019-05-22T06:08:30.171Z,67.33
2019-05-22T06:09:35.304Z,67.41
2019-05-22T06:11:42.602Z,67.51
2019-05-22T06:12:48.177Z,67.52
2019-05-22T06:13:53.911Z,67.55
2019-05-22T06:15:00.642Z,67.45
2019-05-22T06:16:50.103Z,67.35
2019-05-22T06:18:32.091Z,67.36
2019-05-22T06:19:41.739Z,67.34
2019-05-22T06:21:02.688Z,67.32
2019-05-22T06:21:55.253Z,67.17
2019-05-22T06:23:49.872Z,67.10
2019-05-22T06:25:00.911Z,66.93
2019-05-22T06:26:07.862Z,66.82
2019-05-22T06:27:25.385Z,66.76
2019-05-22T06:28:33.975Z,66.77
2019-05-22T06:29:57.729Z,66.64
2019-05-22T06:31:05.621Z,66.59
2019-05-22T06:33:01.299Z,66.52
2019-05-22T06:34:07.437Z,66.37
2019-05-22T06:35:12.934Z,66.28
2019-05-22T06:36:19.624Z,66.21
2019-05-22T06:37:34.662Z,66.15
2019-05-22T06:39:04.353Z,66.00
2019-05-22T06:40:11.713Z,65.67
2019-05-22T06:41:19.396Z,65.72
2019-05-22T06:42:24.644Z,65.66
2019-05-22T06:44:22.644Z,65.61
2019-05-22T06:45:28.437Z,65.58
2019-05-22T06:46:47.927Z,65.51
2019-05-22T06:47:53.582Z,65.51
2019-05-22T06:49:01.883Z,65.61
2019-05-22T06:50:08.577Z,65.61
2019-05-22T06:51:19.309Z,65.57
2019-05-22T06:52:21.699Z,65.54
2019-05-22T06:53:26.851Z,65.48
2019-05-22T06:54:32.552Z,65.42
2019-05-22T06:55:37.898Z,65.54
2019-05-22T06:56:43.803Z,65.50
2019-05-22T06:57:49.088Z,65.47
2019-05-22T06:58:54.676Z,65.49
2019-05-22T07:00:13.948Z,65.36
2019-05-22T07:01:10.836Z,65.14
2019-05-22T07:02:19.352Z,65.07
2019-05-22T07:03:25.694Z,65.06
2019-05-22T07:04:31.483Z,65.05
2019-05-22T07:05:37.950Z,64.99
2019-05-22T07:06:43.590Z,64.99
2019-05-22T07:07:49.306Z,64.97
2019-05-22T07:08:54.574Z,64.87
2019-05-22T07:10:00.701Z,64.77
2019-05-22T07:11:05.744Z,64.72
2019-05-22T07:12:13.255Z,64.79
2019-05-22T07:13:19.950Z,64.79
2019-05-22T07:14:27.685Z,64.81
2019-05-22T07:15:42.946Z,64.80
2019-05-22T07:16:49.566Z,64.81
2019-05-22T07:17:55.793Z,64.78
2019-05-22T07:19:01.740Z,64.83
2019-05-22T07:20:07.837Z,64.73
2019-05-22T07:21:13.526Z,64.74
2019-05-22T07:22:18.921Z,64.72
2019-05-22T07:23:29.020Z,64.72
2019-05-22T07:24:34.212Z,64.66
2019-05-22T07:25:42.199Z,64.55
2019-05-22T07:26:48.945Z,64.54
2019-05-22T07:27:55.026Z,64.40
2019-05-22T07:29:04.922Z,64.26
2019-05-22T07:30:09.981Z,64.16
2019-05-22T07:31:15.265Z,64.21
2019-05-22T07:32:21.082Z,64.11
2019-05-22T07:33:26.388Z,64.10
2019-05-22T07:34:32.247Z,63.92
2019-05-22T07:35:56.176Z,63.90
2019-05-22T07:36:46.145Z,63.87
2019-05-22T07:37:51.884Z,63.79
2019-05-22T07:38:58.080Z,63.74
2019-05-22T07:40:03.527Z,63.73
2019-05-22T07:41:09.966Z,63.70
2019-05-22T07:42:15.132Z,63.56
2019-05-22T07:43:22.469Z,63.48
2019-05-22T07:44:27.703Z,63.33
2019-05-22T07:45:35.603Z,63.33
2019-05-22T07:46:40.903Z,63.32
2019-05-22T07:47:48.340Z,63.13
2019-05-22T07:48:54.069Z,63.13
2019-05-22T07:49:59.963Z,63.08
2019-05-22T07:51:05.490Z,62.89
2019-05-22T07:52:12.124Z,62.90
2019-05-22T07:53:17.831Z,62.79
2019-05-22T07:54:24.150Z,62.68
2019-05-22T07:55:32.426Z,62.42
2019-05-22T07:56:39.180Z,62.32
2019-05-22T07:57:47.853Z,62.24
2019-05-22T07:58:54.115Z,62.24
2019-05-22T07:59:59.147Z,62.03
2019-05-22T08:01:05.355Z,61.89
2019-05-22T08:02:11.234Z,61.61
2019-05-22T08:03:18.158Z,61.52
2019-05-22T08:04:24.569Z,61.43
2019-05-22T08:05:30.897Z,61.41
2019-05-22T08:06:36.088Z,61.41
2019-05-22T08:07:42.099Z,61.30
2019-05-22T08:08:47.502Z,61.23
2019-05-22T08:09:53.367Z,61.25
2019-05-22T08:10:59.516Z,61.16
2019-05-22T08:12:06.703Z,61.03
2019-05-22T08:13:12.380Z,60.95
2019-05-22T08:14:19.487Z,60.76
2019-05-22T08:15:26.309Z,60.47
2019-05-22T08:16:33.211Z,60.31
2019-05-22T08:17:39.526Z,60.13
2019-05-22T08:18:45.812Z,59.96
2019-05-22T08:19:51.183Z,59.81
2019-05-22T08:20:57.507Z,59.63
2019-05-22T08:22:07.290Z,59.40
2019-05-22T08:23:11.656Z,59.26
2019-05-22T08:24:17.370Z,59.08
2019-05-22T08:25:24.301Z,59.02
2019-05-22T08:26:29.737Z,58.88
2019-05-22T08:27:36.928Z,58.87
2019-05-22T08:28:42.350Z,58.98
2019-05-22T08:29:48.415Z,58.99
2019-05-22T08:30:54.023Z,58.92
2019-05-22T08:32:01.022Z,58.88
2019-05-22T08:33:11.373Z,58.89
2019-05-22T08:34:18.005Z,58.69
2019-05-22T08:35:23.799Z,58.60
2019-05-22T08:36:30.563Z,58.28
2019-05-22T08:37:39.613Z,58.18
2019-05-22T08:38:46.258Z,58.16
2019-05-22T08:39:51.839Z,58.09
2019-05-22T08:40:59.789Z,57.94
2019-05-22T08:42:05.200Z,57.75
2019-05-22T08:43:11.139Z,57.59
2019-05-22T08:44:17.751Z,57.43
2019-05-22T08:45:24.056Z,57.29
2019-05-22T08:46:31.025Z,57.00
2019-05-22T08:47:37.027Z,56.88
2019-05-22T08:48:48.215Z,56.71
2019-05-22T08:49:51.152Z,56.48
2019-05-22T08:50:57.020Z,56.32
2019-05-22T08:52:03.182Z,56.20
2019-05-22T08:53:09.022Z,56.26
2019-05-22T08:54:15.330Z,56.44
2019-05-22T08:55:20.953Z,56.50
2019-05-22T08:56:26.811Z,56.38
2019-05-22T08:57:32.158Z,56.32
2019-05-22T08:58:40.822Z,56.32
2019-05-22T08:59:46.383Z,56.28
2019-05-22T09:00:51.993Z,56.13
2019-05-22T09:01:57.211Z,55.99
2019-05-22T09:03:02.994Z,55.90
2019-05-22T09:04:08.509Z,55.80
2019-05-22T09:05:15.881Z,55.74
2019-05-22T09:06:21.286Z,55.71
2019-05-22T09:07:26.974Z,55.70
2019-05-22T09:08:32.051Z,55.60
2019-05-22T09:09:37.819Z,55.45
2019-05-22T09:10:43.088Z,55.47
2019-05-22T09:11:48.735Z,55.54
2019-05-22T09:12:53.876Z,55.64
2019-05-22T09:13:59.405Z,55.62
2019-05-22T09:15:05.430Z,55.65
2019-05-22T09:16:12.755Z,55.40
2019-05-22T09:17:19.451Z,55.48
2019-05-22T09:18:25.507Z,55.52
2019-05-22T09:19:30.709Z,55.48
2019-05-22T09:20:48.914Z,55.42
2019-05-22T09:21:43.819Z,55.49
2019-05-22T09:22:49.947Z,55.67
2019-05-22T09:23:55.839Z,55.87
2019-05-22T09:25:01.439Z,56.02
2019-05-22T09:26:08.168Z,56.11
2019-05-22T09:27:14.469Z,56.26
2019-05-22T09:28:19.521Z,56.54
2019-05-22T09:29:25.297Z,56.60
2019-05-22T09:30:30.436Z,56.50
2019-05-22T09:31:36.073Z,56.33
2019-05-22T09:32:41.115Z,56.12
2019-05-22T09:33:47.077Z,55.94
2019-05-22T09:34:52.396Z,55.89
2019-05-22T09:35:58.387Z,55.70
2019-05-22T09:37:03.844Z,55.67
2019-05-22T09:38:09.532Z,55.57
2019-05-22T09:39:15.674Z,55.47
2019-05-22T09:40:21.527Z,55.50
2019-05-22T09:41:26.723Z,55.54
2019-05-22T09:42:33.134Z,55.53
2019-05-22T09:43:38.801Z,55.45
2019-05-22T09:44:44.386Z,55.24
2019-05-22T09:45:49.815Z,55.06
2019-05-22T09:46:56.385Z,54.96
2019-05-22T09:48:01.458Z,55.00
2019-05-22T09:49:08.631Z,54.93
2019-05-22T09:50:14.867Z,54.80
2019-05-22T09:51:20.622Z,54.76
2019-05-22T09:52:25.944Z,54.67
2019-05-22T09:53:32.484Z,54.53
2019-05-22T09:54:38.676Z,54.41
2019-05-22T09:55:47.265Z,54.21
2019-05-22T09:56:52.235Z,54.03
2019-05-22T09:57:57.940Z,53.75
2019-05-22T09:59:03.367Z,53.70
2019-05-22T10:00:10.570Z,53.79
2019-05-22T10:01:15.823Z,53.82
2019-05-22T10:02:21.915Z,53.90
2019-05-22T10:03:27.223Z,53.86
2019-05-22T10:04:33.340Z,54.00
2019-05-22T10:05:38.376Z,54.17
2019-05-22T10:06:44.498Z,54.29
2019-05-22T10:08:00.347Z,54.36
2019-05-22T10:08:58.140Z,54.58
2019-05-22T10:10:04.632Z,54.82
2019-05-22T10:11:10.468Z,55.05
2019-05-22T10:12:15.995Z,55.18
2019-05-22T10:13:22.555Z,55.24
2019-05-22T10:14:27.792Z,55.30
2019-05-22T10:15:33.920Z,55.23
2019-05-22T10:16:39.088Z,55.08
2019-05-22T10:17:49.592Z,55.03
2019-05-22T10:18:54.996Z,54.96
2019-05-22T10:20:01.418Z,54.89
2019-05-22T10:21:06.757Z,54.89
2019-05-22T10:22:13.112Z,54.95
2019-05-22T10:23:18.782Z,55.00
2019-05-22T10:24:25.126Z,55.11
2019-05-22T10:25:30.591Z,55.21
2019-05-22T10:26:36.926Z,55.26
2019-05-22T10:27:41.911Z,55.32
2019-05-22T10:28:47.599Z,55.41
2019-05-22T10:29:52.953Z,55.48
2019-05-22T10:30:59.869Z,55.44
2019-05-22T10:32:05.869Z,55.33
2019-05-22T10:33:11.842Z,55.21
2019-05-22T10:34:17.200Z,55.11
2019-05-22T10:35:27.966Z,55.17
2019-05-22T10:36:34.077Z,55.12
2019-05-22T10:37:39.908Z,55.10
2019-05-22T10:38:45.417Z,55.14
2019-05-22T10:39:51.479Z,55.20
2019-05-22T10:40:59.288Z,55.25
2019-05-22T10:42:04.339Z,55.29
2019-05-22T10:43:09.926Z,55.33
2019-05-22T10:44:15.759Z,55.29
2019-05-22T10:45:20.978Z,55.24
2019-05-22T10:46:27.230Z,55.27
2019-05-22T10:47:33.587Z,55.33
2019-05-22T10:48:40.529Z,55.33
2019-05-22T10:49:46.515Z,55.33
2019-05-22T10:50:52.170Z,55.39
2019-05-22T10:51:57.704Z,55.39
2019-05-22T10:53:03.391Z,55.21
2019-05-22T10:54:08.604Z,55.03
2019-05-22T10:55:14.888Z,54.92
2019-05-22T10:56:20.264Z,54.97
2019-05-22T10:57:25.909Z,55.09
2019-05-22T10:58:31.447Z,55.25
2019-05-22T10:59:37.088Z,55.44
2019-05-22T11:00:42.506Z,55.59
2019-05-22T11:01:48.453Z,55.57
2019-05-22T11:02:53.799Z,55.40
2019-05-22T11:04:00.144Z,55.27
2019-05-22T11:05:05.771Z,55.27
2019-05-22T11:06:12.640Z,55.27
2019-05-22T11:07:18.009Z,55.24
2019-05-22T11:08:23.897Z,55.24
2019-05-22T11:09:29.453Z,55.17
2019-05-22T11:10:36.432Z,54.88
2019-05-22T11:11:42.667Z,54.59
2019-05-22T11:12:48.370Z,54.45
2019-05-22T11:14:01.463Z,54.32
2019-05-22T11:15:01.082Z,54.24
2019-05-22T11:16:06.305Z,54.19
2019-05-22T11:17:12.407Z,54.14
2019-05-22T11:18:17.702Z,54.07
2019-05-22T11:19:23.974Z,53.99
2019-05-22T11:20:30.661Z,53.90
2019-05-22T11:21:36.469Z,53.82
2019-05-22T11:22:42.374Z,53.64
2019-05-22T11:23:52.367Z,53.64
2019-05-22T11:24:55.076Z,53.71
2019-05-22T11:26:00.871Z,53.61
2019-05-22T11:27:06.425Z,53.48
2019-05-22T11:28:12.479Z,53.37
2019-05-22T11:29:17.847Z,53.15
2019-05-22T11:30:24.255Z,52.94
2019-05-22T11:31:29.559Z,52.65
2019-05-22T11:32:36.005Z,52.11
2019-05-22T11:33:41.271Z,51.89
2019-05-22T11:34:47.656Z,51.68
2019-05-22T11:35:53.362Z,51.56
2019-05-22T11:36:59.054Z,51.51
2019-05-22T11:38:04.637Z,51.71
2019-05-22T11:39:13.717Z,51.90
2019-05-22T11:40:21.253Z,51.96
2019-05-22T11:41:27.484Z,51.96
2019-05-22T11:42:32.697Z,51.98
2019-05-22T11:43:38.719Z,51.82
2019-05-22T11:44:43.890Z,51.79
2019-05-22T11:45:49.853Z,51.87
2019-05-22T11:46:54.968Z,51.92
2019-05-22T11:48:01.007Z,51.95
2019-05-22T11:49:06.508Z,51.93
2019-05-22T11:50:13.411Z,51.79
2019-05-22T11:51:20.293Z,51.54
2019-05-22T11:52:28.246Z,51.33
2019-05-22T11:53:33.669Z,51.09
2019-05-22T11:54:39.372Z,50.84
2019-05-22T11:55:46.319Z,50.65
2019-05-22T11:56:52.569Z,50.39
2019-05-22T11:57:58.185Z,50.21
2019-05-22T11:59:04.147Z,50.01
2019-05-22T12:00:10.059Z,49.88
2019-05-22T12:01:16.100Z,49.84
2019-05-22T12:02:22.608Z,49.83
2019-05-22T12:03:29.744Z,49.94
2019-05-22T12:04:47.133Z,49.90
2019-05-22T12:05:44.116Z,49.85
2019-05-22T12:06:53.257Z,49.86
2019-05-22T12:07:57.301Z,49.76
2019-05-22T12:09:04.292Z,49.60
2019-05-22T12:10:10.799Z,49.49
2019-05-22T12:11:19.025Z,49.48
2019-05-22T12:12:25.568Z,49.63
2019-05-22T12:13:31.722Z,49.57
2019-05-22T12:14:38.088Z,49.49
2019-05-22T12:15:43.137Z,49.24
2019-05-22T12:16:53.005Z,49.10
2019-05-22T12:17:57.135Z,48.96
2019-05-22T12:19:02.753Z,48.89
2019-05-22T12:20:10.073Z,48.80
2019-05-22T12:21:16.479Z,48.81
2019-05-22T12:22:21.727Z,48.80
2019-05-22T12:23:27.911Z,48.79
2019-05-22T12:24:37.082Z,48.78
2019-05-22T12:25:41.460Z,48.80
2019-05-22T12:26:46.702Z,48.86
2019-05-22T12:27:52.614Z,48.79
2019-05-22T12:28:57.850Z,48.81
2019-05-22T12:30:03.794Z,48.85
2019-05-22T12:31:09.706Z,48.83
2019-05-22T12:32:15.376Z,48.86
2019-05-22T12:33:20.725Z,48.73
2019-05-22T12:34:26.947Z,48.57
2019-05-22T12:35:32.274Z,48.44
2019-05-22T12:36:37.966Z,48.42
2019-05-22T12:37:44.239Z,48.48
2019-05-22T12:38:50.064Z,48.53
2019-05-22T12:39:56.630Z,48.54
2019-05-22T12:41:03.817Z,48.46
2019-05-22T12:42:09.127Z,48.39
2019-05-22T12:43:15.209Z,48.53
2019-05-22T12:44:21.510Z,48.53
2019-05-22T12:45:29.010Z,48.31
2019-05-22T12:46:34.771Z,48.03
2019-05-22T12:47:41.005Z,47.75
2019-05-22T12:48:46.705Z,47.62
2019-05-22T12:49:53.082Z,47.39
2019-05-22T12:50:58.638Z,47.14
2019-05-22T12:52:05.729Z,46.93
2019-05-22T12:53:13.686Z,46.65
2019-05-22T12:54:19.711Z,46.61
2019-05-22T12:55:25.421Z,46.61
2019-05-22T12:56:32.560Z,46.67
2019-05-22T12:57:37.678Z,46.77
2019-05-22T12:58:44.051Z,46.76
2019-05-22T12:59:49.336Z,46.65
2019-05-22T13:00:55.585Z,46.60
2019-05-22T13:02:01.007Z,46.47
2019-05-22T13:03:07.988Z,46.36
2019-05-22T13:04:14.591Z,46.22
2019-05-22T13:05:21.115Z,46.12
2019-05-22T13:06:26.699Z,46.03
2019-05-22T13:07:33.038Z,45.94
2019-05-22T13:08:39.239Z,45.81
2019-05-22T13:09:45.362Z,45.72
2019-05-22T13:10:50.454Z,45.67
2019-05-22T13:11:57.143Z,45.50
2019-05-22T13:13:02.389Z,45.51
2019-05-22T13:14:08.748Z,45.44
2019-05-22T13:15:13.962Z,45.44
2019-05-22T13:16:19.908Z,45.40
2019-05-22T13:17:26.217Z,45.39
2019-05-22T13:18:33.276Z,45.39
2019-05-22T13:19:39.481Z,45.38
2019-05-22T13:20:47.842Z,45.36
2019-05-22T13:21:56.592Z,45.31
2019-05-22T13:23:05.183Z,45.42
2019-05-22T13:24:22.933Z,45.38
2019-05-22T13:25:32.983Z,45.15
2019-05-22T13:26:39.421Z,45.19
2019-05-22T13:27:46.186Z,45.15
2019-05-22T13:28:53.008Z,45.18
2019-05-22T13:30:01.821Z,45.28
2019-05-22T13:31:07.618Z,45.47
2019-05-22T13:32:15.265Z,45.57
2019-05-22T13:33:25.885Z,45.41
2019-05-22T13:34:33.390Z,45.15
2019-05-22T13:35:39.759Z,44.97
2019-05-22T13:36:47.543Z,45.01
2019-05-22T13:37:52.677Z,45.01
2019-05-22T13:38:58.715Z,44.66
2019-05-22T13:40:04.287Z,44.41
2019-05-22T13:41:10.077Z,44.36
2019-05-22T13:42:15.237Z,44.29
2019-05-22T13:43:20.871Z,44.12
2019-05-22T13:44:26.558Z,44.00
2019-05-22T13:45:32.485Z,43.97
2019-05-22T13:46:38.050Z,43.75
2019-05-22T13:47:44.255Z,43.57
2019-05-22T13:48:49.796Z,43.51
2019-05-22T13:49:55.587Z,43.47
2019-05-22T13:51:01.521Z,43.52
2019-05-22T13:52:07.573Z,43.54
2019-05-22T13:53:15.810Z,43.59
2019-05-22T13:54:21.796Z,43.78
2019-05-22T13:55:27.409Z,44.00
2019-05-22T13:56:33.078Z,44.22
2019-05-22T13:57:40.769Z,44.41
2019-05-22T13:58:47.269Z,44.51
2019-05-22T13:59:52.903Z,44.56
2019-05-22T14:00:59.098Z,44.60
2019-05-22T14:02:04.353Z,44.77
2019-05-22T14:03:10.295Z,44.92
2019-05-22T14:04:15.764Z,44.62
2019-05-22T14:05:21.976Z,44.40
2019-05-22T14:06:27.510Z,44.32
2019-05-22T14:07:33.606Z,44.29
2019-05-22T14:08:38.714Z,44.13
2019-05-22T14:09:44.923Z,44.06
2019-05-22T14:10:50.878Z,44.00
2019-05-22T14:11:57.239Z,44.06
2019-05-22T14:13:02.409Z,44.11
2019-05-22T14:14:08.247Z,44.06
2019-05-22T14:15:15.631Z,44.02
2019-05-22T14:16:21.941Z,44.09
2019-05-22T14:17:27.230Z,44.17
2019-05-22T14:18:32.950Z,43.89
2019-05-22T14:19:38.530Z,43.59
2019-05-22T14:20:44.488Z,43.61
2019-05-22T14:21:51.757Z,43.56
2019-05-22T14:22:57.083Z,43.39
2019-05-22T14:24:02.684Z,43.17
2019-05-22T14:25:08.872Z,43.00
2019-05-22T14:26:13.994Z,42.98
2019-05-22T14:27:19.998Z,42.70
2019-05-22T14:28:27.335Z,42.51
2019-05-22T14:29:32.959Z,42.33
2019-05-22T14:30:38.392Z,42.29
2019-05-22T14:31:44.089Z,42.46
2019-05-22T14:32:49.185Z,42.46